ROMMA est une association bénévole à but non lucratif. Votre soutien est indispensable : ADHERER à ROMMA ou FAIRE un DON

Le Versoud - (38, Isère)

Vallée du Grésivaudan (220 m)   Longitude: 05° 51' 44" E   Latitude: 45° 13' 06" N Station partenaire n°6
 

Détail journalier du     <<     >>

Température Humidité Pression Vent Dir Rafale Dir. rafale Ensol.
Heure (°C) (%) (hPa) (km/h) (km/h) (min)
01:00 21.266101400---0
02:00 20.870101400---0
03:00 19.473101402NO0
04:00 19.073101302NO0
05:00 18.278101300---0
06:00 18.775101300---0
07:00 18.476101402NO0
08:00 19.673101402NO15
09:00 22.3661014011O60
10:00 24.2581014013OSO60
11:00 25.44710141NE18N60
12:00 26.24510133N21NO60
13:00 27.33910133NE16NE60
14:00 27.73810135NE19NE60
15:00 27.93710126NE24N60
16:00 28.43410125NE23NE60
17:00 28.83510125NE24NE60
18:00 28.53410125NE23NE60
19:00 28.33710125NE24NE60
20:00 27.34010121N18NE60
21:00 24.945101203N25
22:00 22.552101200---0
23:00 21.356101200---0
minuit 20.257101300---0

Graphique du 13-07-2019

 

Serveur OMMA